sensor_id;sensor_type;location;lat;lon;timestamp;pressure;altitude;pressure_sealevel;temperature;humidity
7297;BME280;40758;54.038;11.684;2022-12-18T00:01:40;102691.22;;;-7.74;100.00
7297;BME280;40758;54.038;11.684;2022-12-18T00:04:20;102686.41;;;-7.94;100.00
7297;BME280;40758;54.038;11.684;2022-12-18T00:06:50;102693.16;;;-8.02;100.00
7297;BME280;40758;54.038;11.684;2022-12-18T00:09:19;102688.03;;;-7.99;100.00
7297;BME280;40758;54.038;11.684;2022-12-18T00:11:50;102686.53;;;-7.88;100.00
7297;BME280;40758;54.038;11.684;2022-12-18T00:14:19;102685.56;;;-7.93;100.00
7297;BME280;40758;54.038;11.684;2022-12-18T00:16:48;102685.41;;;-7.99;100.00
7297;BME280;40758;54.038;11.684;2022-12-18T00:19:18;102686.22;;;-8.03;100.00
7297;BME280;40758;54.038;11.684;2022-12-18T00:21:47;102691.56;;;-7.97;100.00
7297;BME280;40758;54.038;11.684;2022-12-18T00:24:20;102679.59;;;-7.87;100.00
7297;BME280;40758;54.038;11.684;2022-12-18T00:26:49;102678.69;;;-7.89;100.00
7297;BME280;40758;54.038;11.684;2022-12-18T00:29:18;102673.50;;;-7.88;100.00
7297;BME280;40758;54.038;11.684;2022-12-18T00:31:47;102678.53;;;-7.97;100.00
7297;BME280;40758;54.038;11.684;2022-12-18T00:34:18;102682.41;;;-7.80;100.00
7297;BME280;40758;54.038;11.684;2022-12-18T00:36:48;102684.72;;;-7.92;100.00
7297;BME280;40758;54.038;11.684;2022-12-18T00:39:16;102683.38;;;-7.74;100.00
7297;BME280;40758;54.038;11.684;2022-12-18T00:41:45;102679.78;;;-7.80;100.00
7297;BME280;40758;54.038;11.684;2022-12-18T00:44:31;102678.75;;;-7.86;100.00
7297;BME280;40758;54.038;11.684;2022-12-18T00:47:00;102682.16;;;-7.89;100.00
7297;BME280;40758;54.038;11.684;2022-12-18T00:49:30;102691.91;;;-7.82;100.00
7297;BME280;40758;54.038;11.684;2022-12-18T00:51:59;102690.13;;;-7.84;100.00
7297;BME280;40758;54.038;11.684;2022-12-18T00:54:29;102697.63;;;-7.98;100.00
7297;BME280;40758;54.038;11.684;2022-12-18T00:57:00;102696.50;;;-8.09;100.00
7297;BME280;40758;54.038;11.684;2022-12-18T00:59:30;102713.19;;;-8.01;100.00
7297;BME280;40758;54.038;11.684;2022-12-18T01:01:59;102705.88;;;-7.80;100.00
7297;BME280;40758;54.038;11.684;2022-12-18T01:04:32;102718.13;;;-7.76;100.00
7297;BME280;40758;54.038;11.684;2022-12-18T01:07:01;102724.66;;;-7.57;100.00
7297;BME280;40758;54.038;11.684;2022-12-18T01:09:31;102714.44;;;-7.48;100.00
7297;BME280;40758;54.038;11.684;2022-12-18T01:11:59;102717.28;;;-7.37;100.00
7297;BME280;40758;54.038;11.684;2022-12-18T01:14:28;102726.53;;;-7.51;100.00
7297;BME280;40758;54.038;11.684;2022-12-18T01:16:57;102727.22;;;-7.58;100.00
7297;BME280;40758;54.038;11.684;2022-12-18T01:19:26;102709.00;;;-7.57;100.00
7297;BME280;40758;54.038;11.684;2022-12-18T01:21:57;102723.78;;;-7.57;100.00
7297;BME280;40758;54.038;11.684;2022-12-18T01:24:26;102734.09;;;-7.63;100.00
7297;BME280;40758;54.038;11.684;2022-12-18T01:26:54;102727.69;;;-7.78;100.00
7297;BME280;40758;54.038;11.684;2022-12-18T01:29:24;102740.41;;;-7.90;100.00
7297;BME280;40758;54.038;11.684;2022-12-18T01:31:55;102747.19;;;-7.98;100.00
7297;BME280;40758;54.038;11.684;2022-12-18T01:34:24;102746.72;;;-8.16;100.00
7297;BME280;40758;54.038;11.684;2022-12-18T01:36:55;102750.69;;;-8.33;100.00
7297;BME280;40758;54.038;11.684;2022-12-18T01:39:24;102759.41;;;-8.31;100.00
7297;BME280;40758;54.038;11.684;2022-12-18T01:41:53;102759.41;;;-8.31;100.00
7297;BME280;40758;54.038;11.684;2022-12-18T01:45:23;102760.06;;;-8.40;100.00
7297;BME280;40758;54.038;11.684;2022-12-18T01:47:55;102756.69;;;-8.36;100.00
7297;BME280;40758;54.038;11.684;2022-12-18T01:50:31;102754.19;;;-8.31;100.00
7297;BME280;40758;54.038;11.684;2022-12-18T01:53:07;102749.66;;;-8.38;100.00
7297;BME280;40758;54.038;11.684;2022-12-18T01:55:45;102753.19;;;-8.36;100.00
7297;BME280;40758;54.038;11.684;2022-12-18T01:58:16;102746.59;;;-8.21;100.00
7297;BME280;40758;54.038;11.684;2022-12-18T02:00:46;102740.53;;;-8.21;100.00
7297;BME280;40758;54.038;11.684;2022-12-18T02:03:15;102738.75;;;-8.22;100.00
7297;BME280;40758;54.038;11.684;2022-12-18T02:05:51;102739.44;;;-8.29;100.00
7297;BME280;40758;54.038;11.684;2022-12-18T02:08:36;102733.22;;;-8.36;100.00
7297;BME280;40758;54.038;11.684;2022-12-18T02:11:15;102721.84;;;-8.39;100.00
7297;BME280;40758;54.038;11.684;2022-12-18T02:13:59;102728.56;;;-8.47;100.00
7297;BME280;40758;54.038;11.684;2022-12-18T02:16:40;102727.28;;;-8.30;100.00
7297;BME280;40758;54.038;11.684;2022-12-18T02:19:44;102727.34;;;-8.26;100.00
7297;BME280;40758;54.038;11.684;2022-12-18T02:22:29;102728.06;;;-8.34;100.00
7297;BME280;40758;54.038;11.684;2022-12-18T02:25:21;102728.38;;;-8.19;100.00
7297;BME280;40758;54.038;11.684;2022-12-18T02:28:00;102729.53;;;-8.08;100.00
7297;BME280;40758;54.038;11.684;2022-12-18T02:30:33;102719.03;;;-8.11;100.00
7297;BME280;40758;54.038;11.684;2022-12-18T02:33:07;102708.66;;;-8.08;100.00
7297;BME280;40758;54.038;11.684;2022-12-18T02:35:44;102695.41;;;-8.17;100.00
7297;BME280;40758;54.038;11.684;2022-12-18T02:38:16;102707.47;;;-8.22;100.00
7297;BME280;40758;54.038;11.684;2022-12-18T02:40:46;102712.41;;;-8.34;100.00
7297;BME280;40758;54.038;11.684;2022-12-18T02:43:19;102735.72;;;-8.40;100.00
7297;BME280;40758;54.038;11.684;2022-12-18T02:45:57;102749.59;;;-8.41;100.00
7297;BME280;40758;54.038;11.684;2022-12-18T02:48:32;102747.56;;;-8.51;100.00
7297;BME280;40758;54.038;11.684;2022-12-18T02:51:11;102759.69;;;-8.53;100.00
7297;BME280;40758;54.038;11.684;2022-12-18T02:53:51;102754.81;;;-8.73;100.00
7297;BME280;40758;54.038;11.684;2022-12-18T02:56:28;102753.47;;;-8.88;100.00
7297;BME280;40758;54.038;11.684;2022-12-18T02:59:04;102741.78;;;-8.73;100.00
7297;BME280;40758;54.038;11.684;2022-12-18T03:01:49;102741.69;;;-8.76;100.00
7297;BME280;40758;54.038;11.684;2022-12-18T03:04:26;102745.22;;;-8.74;100.00
7297;BME280;40758;54.038;11.684;2022-12-18T03:07:03;102741.34;;;-8.88;100.00
7297;BME280;40758;54.038;11.684;2022-12-18T03:09:39;102737.56;;;-8.99;100.00
7297;BME280;40758;54.038;11.684;2022-12-18T03:12:20;102739.75;;;-9.14;100.00
7297;BME280;40758;54.038;11.684;2022-12-18T03:14:59;102743.72;;;-9.25;100.00
7297;BME280;40758;54.038;11.684;2022-12-18T03:17:32;102748.69;;;-9.34;100.00
7297;BME280;40758;54.038;11.684;2022-12-18T03:20:07;102752.03;;;-9.38;100.00
7297;BME280;40758;54.038;11.684;2022-12-18T03:22:40;102760.38;;;-9.49;100.00
7297;BME280;40758;54.038;11.684;2022-12-18T03:25:14;102760.38;;;-9.49;100.00
7297;BME280;40758;54.038;11.684;2022-12-18T03:27:49;102766.28;;;-9.54;100.00
7297;BME280;40758;54.038;11.684;2022-12-18T03:30:21;102776.88;;;-9.48;100.00
7297;BME280;40758;54.038;11.684;2022-12-18T03:32:58;102779.59;;;-9.44;100.00
7297;BME280;40758;54.038;11.684;2022-12-18T03:35:36;102788.47;;;-9.38;100.00
7297;BME280;40758;54.038;11.684;2022-12-18T03:38:07;102790.50;;;-9.28;100.00
7297;BME280;40758;54.038;11.684;2022-12-18T03:40:55;102776.53;;;-9.30;100.00
7297;BME280;40758;54.038;11.684;2022-12-18T03:43:38;102779.25;;;-9.27;100.00
7297;BME280;40758;54.038;11.684;2022-12-18T03:46:24;102778.31;;;-9.29;100.00
7297;BME280;40758;54.038;11.684;2022-12-18T03:49:01;102781.88;;;-9.27;100.00
7297;BME280;40758;54.038;11.684;2022-12-18T03:51:39;102774.00;;;-9.29;100.00
7297;BME280;40758;54.038;11.684;2022-12-18T03:54:15;102771.25;;;-9.33;100.00
7297;BME280;40758;54.038;11.684;2022-12-18T03:56:49;102771.88;;;-9.12;100.00
7297;BME280;40758;54.038;11.684;2022-12-18T03:59:24;102779.41;;;-8.93;100.00
7297;BME280;40758;54.038;11.684;2022-12-18T04:01:57;102783.47;;;-8.73;100.00
7297;BME280;40758;54.038;11.684;2022-12-18T04:04:30;102786.91;;;-8.74;100.00
7297;BME280;40758;54.038;11.684;2022-12-18T04:07:00;102782.00;;;-8.63;100.00
7297;BME280;40758;54.038;11.684;2022-12-18T04:09:34;102785.13;;;-8.75;100.00
7297;BME280;40758;54.038;11.684;2022-12-18T04:12:04;102785.78;;;-8.82;100.00
7297;BME280;40758;54.038;11.684;2022-12-18T04:14:33;102791.59;;;-8.92;100.00
7297;BME280;40758;54.038;11.684;2022-12-18T04:17:04;102794.53;;;-8.80;100.00
7297;BME280;40758;54.038;11.684;2022-12-18T04:19:33;102787.75;;;-8.75;100.00
7297;BME280;40758;54.038;11.684;2022-12-18T04:22:02;102797.50;;;-8.68;100.00
7297;BME280;40758;54.038;11.684;2022-12-18T04:24:31;102789.72;;;-8.66;100.00
7297;BME280;40758;54.038;11.684;2022-12-18T04:27:03;102789.63;;;-8.71;100.00
7297;BME280;40758;54.038;11.684;2022-12-18T04:29:32;102788.41;;;-8.82;100.00
7297;BME280;40758;54.038;11.684;2022-12-18T04:32:01;102787.34;;;-8.88;100.00
7297;BME280;40758;54.038;11.684;2022-12-18T04:34:31;102780.47;;;-8.86;100.00
7297;BME280;40758;54.038;11.684;2022-12-18T04:37:01;102772.00;;;-8.79;100.00
7297;BME280;40758;54.038;11.684;2022-12-18T04:39:30;102768.59;;;-8.77;100.00
7297;BME280;40758;54.038;11.684;2022-12-18T04:42:01;102765.66;;;-8.89;100.00
7297;BME280;40758;54.038;11.684;2022-12-18T04:44:33;102772.06;;;-9.06;100.00
7297;BME280;40758;54.038;11.684;2022-12-18T04:47:02;102758.78;;;-9.15;100.00
7297;BME280;40758;54.038;11.684;2022-12-18T04:49:33;102763.00;;;-9.20;100.00
7297;BME280;40758;54.038;11.684;2022-12-18T04:52:02;102775.06;;;-9.22;100.00
7297;BME280;40758;54.038;11.684;2022-12-18T04:54:31;102786.38;;;-9.22;100.00
7297;BME280;40758;54.038;11.684;2022-12-18T04:57:00;102777.09;;;-9.12;100.00
7297;BME280;40758;54.038;11.684;2022-12-18T04:59:29;102787.63;;;-9.09;100.00
7297;BME280;40758;54.038;11.684;2022-12-18T05:02:00;102790.47;;;-9.02;100.00
7297;BME280;40758;54.038;11.684;2022-12-18T05:04:31;102789.47;;;-9.05;100.00
7297;BME280;40758;54.038;11.684;2022-12-18T05:07:03;102789.47;;;-9.05;100.00
7297;BME280;40758;54.038;11.684;2022-12-18T05:09:32;102782.78;;;-8.97;100.00
7297;BME280;40758;54.038;11.684;2022-12-18T05:12:01;102797.34;;;-9.04;100.00
7297;BME280;40758;54.038;11.684;2022-12-18T05:14:29;102803.50;;;-9.00;100.00
7297;BME280;40758;54.038;11.684;2022-12-18T05:16:58;102797.56;;;-8.96;100.00
7297;BME280;40758;54.038;11.684;2022-12-18T05:19:27;102790.00;;;-8.87;100.00
7297;BME280;40758;54.038;11.684;2022-12-18T05:21:58;102800.78;;;-8.75;100.00
7297;BME280;40758;54.038;11.684;2022-12-18T05:24:27;102802.53;;;-8.74;100.00
7297;BME280;40758;54.038;11.684;2022-12-18T05:26:58;102810.09;;;-8.83;100.00
7297;BME280;40758;54.038;11.684;2022-12-18T05:29:27;102813.13;;;-8.68;100.00
7297;BME280;40758;54.038;11.684;2022-12-18T05:31:58;102809.06;;;-8.88;100.00
7297;BME280;40758;54.038;11.684;2022-12-18T05:34:33;102812.25;;;-8.98;100.00
7297;BME280;40758;54.038;11.684;2022-12-18T05:37:07;102808.72;;;-9.00;100.00
7297;BME280;40758;54.038;11.684;2022-12-18T05:39:44;102814.66;;;-9.04;100.00
7297;BME280;40758;54.038;11.684;2022-12-18T05:42:13;102824.16;;;-9.06;100.00
7297;BME280;40758;54.038;11.684;2022-12-18T05:44:44;102815.44;;;-9.08;100.00
7297;BME280;40758;54.038;11.684;2022-12-18T05:47:13;102809.56;;;-9.01;100.00
7297;BME280;40758;54.038;11.684;2022-12-18T05:49:42;102807.03;;;-8.98;100.00
7297;BME280;40758;54.038;11.684;2022-12-18T05:52:12;102818.53;;;-8.91;100.00
7297;BME280;40758;54.038;11.684;2022-12-18T05:54:41;102817.47;;;-8.98;100.00
7297;BME280;40758;54.038;11.684;2022-12-18T05:57:13;102809.06;;;-8.88;100.00
7297;BME280;40758;54.038;11.684;2022-12-18T05:59:42;102810.59;;;-8.96;100.00
7297;BME280;40758;54.038;11.684;2022-12-18T06:02:11;102804.53;;;-8.95;100.00
7297;BME280;40758;54.038;11.684;2022-12-18T06:04:40;102793.59;;;-9.12;100.00
7297;BME280;40758;54.038;11.684;2022-12-18T06:07:13;102798.44;;;-9.24;100.00
7297;BME280;40758;54.038;11.684;2022-12-18T06:09:42;102804.47;;;-9.26;100.00
7297;BME280;40758;54.038;11.684;2022-12-18T06:12:14;102813.47;;;-9.15;100.00
7297;BME280;40758;54.038;11.684;2022-12-18T06:14:44;102838.03;;;-9.07;100.00
7297;BME280;40758;54.038;11.684;2022-12-18T06:17:12;102848.53;;;-9.04;100.00
7297;BME280;40758;54.038;11.684;2022-12-18T06:19:41;102840.50;;;-8.82;100.00
7297;BME280;40758;54.038;11.684;2022-12-18T06:22:11;102841.44;;;-8.80;100.00
7297;BME280;40758;54.038;11.684;2022-12-18T06:24:43;102846.13;;;-8.68;100.00
7297;BME280;40758;54.038;11.684;2022-12-18T06:27:12;102841.91;;;-8.65;100.00
7297;BME280;40758;54.038;11.684;2022-12-18T06:29:41;102839.53;;;-8.55;100.00
7297;BME280;40758;54.038;11.684;2022-12-18T06:32:13;102839.75;;;-8.48;100.00
7297;BME280;40758;54.038;11.684;2022-12-18T06:34:42;102830.97;;;-8.51;100.00
7297;BME280;40758;54.038;11.684;2022-12-18T06:37:12;102826.50;;;-8.55;100.00
7297;BME280;40758;54.038;11.684;2022-12-18T06:39:42;102824.66;;;-8.60;100.00
7297;BME280;40758;54.038;11.684;2022-12-18T06:42:14;102823.56;;;-8.68;100.00
7297;BME280;40758;54.038;11.684;2022-12-18T06:44:43;102820.00;;;-8.71;100.00
7297;BME280;40758;54.038;11.684;2022-12-18T06:47:12;102820.66;;;-8.78;100.00
7297;BME280;40758;54.038;11.684;2022-12-18T06:49:41;102829.97;;;-8.86;100.00
7297;BME280;40758;54.038;11.684;2022-12-18T06:52:38;102821.25;;;-8.87;100.00
7297;BME280;40758;54.038;11.684;2022-12-18T06:55:16;102826.56;;;-8.84;100.00
7297;BME280;40758;54.038;11.684;2022-12-18T06:57:45;102821.19;;;-8.90;100.00
7297;BME280;40758;54.038;11.684;2022-12-18T07:00:14;102828.06;;;-8.92;100.00
7297;BME280;40758;54.038;11.684;2022-12-18T07:02:43;102836.88;;;-8.87;100.00
7297;BME280;40758;54.038;11.684;2022-12-18T07:05:12;102834.75;;;-8.72;100.00
7297;BME280;40758;54.038;11.684;2022-12-18T07:07:41;102841.84;;;-8.66;100.00
7297;BME280;40758;54.038;11.684;2022-12-18T07:10:13;102845.88;;;-8.77;100.00
7297;BME280;40758;54.038;11.684;2022-12-18T07:12:43;102852.63;;;-8.82;100.00
7297;BME280;40758;54.038;11.684;2022-12-18T07:15:12;102845.91;;;-8.76;100.00
7297;BME280;40758;54.038;11.684;2022-12-18T07:17:41;102855.59;;;-8.72;100.00
7297;BME280;40758;54.038;11.684;2022-12-18T07:20:13;102856.25;;;-8.79;100.00
7297;BME280;40758;54.038;11.684;2022-12-18T07:22:41;102860.97;;;-8.94;100.00
7297;BME280;40758;54.038;11.684;2022-12-18T07:25:14;102853.84;;;-9.01;100.00
7297;BME280;40758;54.038;11.684;2022-12-18T07:27:44;102866.81;;;-9.03;100.00
7297;BME280;40758;54.038;11.684;2022-12-18T07:30:13;102868.47;;;-9.05;100.00
7297;BME280;40758;54.038;11.684;2022-12-18T07:32:42;102872.97;;;-8.99;100.00
7297;BME280;40758;54.038;11.684;2022-12-18T07:35:11;102871.50;;;-8.91;100.00
7297;BME280;40758;54.038;11.684;2022-12-18T07:37:41;102875.41;;;-8.77;100.00
7297;BME280;40758;54.038;11.684;2022-12-18T07:40:13;102871.22;;;-8.72;100.00
7297;BME280;40758;54.038;11.684;2022-12-18T07:42:43;102866.84;;;-8.73;100.00
7297;BME280;40758;54.038;11.684;2022-12-18T07:45:15;102876.44;;;-8.72;100.00
7297;BME280;40758;54.038;11.684;2022-12-18T07:47:44;102872.06;;;-8.73;100.00
7297;BME280;40758;54.038;11.684;2022-12-18T07:50:16;102868.63;;;-8.72;100.00
7297;BME280;40758;54.038;11.684;2022-12-18T07:52:44;102880.13;;;-8.64;100.00
7297;BME280;40758;54.038;11.684;2022-12-18T07:55:14;102880.47;;;-8.51;100.00
7297;BME280;40758;54.038;11.684;2022-12-18T07:57:44;102885.88;;;-8.45;100.00
7297;BME280;40758;54.038;11.684;2022-12-18T08:00:20;102889.47;;;-8.42;100.00
7297;BME280;40758;54.038;11.684;2022-12-18T08:02:50;102883.53;;;-8.36;100.00
7297;BME280;40758;54.038;11.684;2022-12-18T08:05:19;102890.53;;;-8.35;100.00
7297;BME280;40758;54.038;11.684;2022-12-18T08:07:48;102890.56;;;-8.34;100.00
7297;BME280;40758;54.038;11.684;2022-12-18T08:10:17;102892.72;;;-8.18;100.00
7297;BME280;40758;54.038;11.684;2022-12-18T08:12:49;102897.00;;;-8.20;100.00
7297;BME280;40758;54.038;11.684;2022-12-18T08:15:19;102898.06;;;-8.13;100.00
7297;BME280;40758;54.038;11.684;2022-12-18T08:17:48;102891.22;;;-8.08;100.00
7297;BME280;40758;54.038;11.684;2022-12-18T08:20:16;102884.50;;;-8.00;100.00
7297;BME280;40758;54.038;11.684;2022-12-18T08:22:45;102896.09;;;-7.89;100.00
7297;BME280;40758;54.038;11.684;2022-12-18T08:25:14;102902.53;;;-7.78;100.00
7297;BME280;40758;54.038;11.684;2022-12-18T08:27:43;102900.59;;;-7.85;100.00
7297;BME280;40758;54.038;11.684;2022-12-18T08:30:14;102897.09;;;-7.84;100.00
7297;BME280;40758;54.038;11.684;2022-12-18T08:32:43;102898.72;;;-7.89;100.00
7297;BME280;40758;54.038;11.684;2022-12-18T08:35:15;102915.97;;;-7.94;100.00
7297;BME280;40758;54.038;11.684;2022-12-18T08:37:44;102914.69;;;-7.77;100.00
7297;BME280;40758;54.038;11.684;2022-12-18T08:40:13;102903.56;;;-7.69;100.00
7297;BME280;40758;54.038;11.684;2022-12-18T08:42:42;102894.75;;;-7.74;100.00
7297;BME280;40758;54.038;11.684;2022-12-18T08:45:29;102907.16;;;-7.66;100.00
7297;BME280;40758;54.038;11.684;2022-12-18T08:48:02;102906.34;;;-7.63;100.00
7297;BME280;40758;54.038;11.684;2022-12-18T08:50:31;102898.63;;;-7.60;100.00
7297;BME280;40758;54.038;11.684;2022-12-18T08:53:00;102901.38;;;-7.54;100.00
7297;BME280;40758;54.038;11.684;2022-12-18T08:55:29;102913.59;;;-7.52;100.00
7297;BME280;40758;54.038;11.684;2022-12-18T08:58:01;102903.50;;;-7.38;100.00
7297;BME280;40758;54.038;11.684;2022-12-18T09:00:33;102906.81;;;-7.45;100.00
7297;BME280;40758;54.038;11.684;2022-12-18T09:03:05;102901.38;;;-7.54;100.00
7297;BME280;40758;54.038;11.684;2022-12-18T09:05:50;102904.66;;;-7.61;100.00
7297;BME280;40758;54.038;11.684;2022-12-18T09:08:19;102894.44;;;-7.52;100.00
7297;BME280;40758;54.038;11.684;2022-12-18T09:10:50;102898.88;;;-7.50;100.00
7297;BME280;40758;54.038;11.684;2022-12-18T09:13:22;102887.47;;;-7.53;100.00
7297;BME280;40758;54.038;11.684;2022-12-18T09:15:54;102897.03;;;-7.54;100.00
7297;BME280;40758;54.038;11.684;2022-12-18T09:18:25;102883.41;;;-7.42;100.00
7297;BME280;40758;54.038;11.684;2022-12-18T09:20:55;102889.66;;;-7.36;100.00
7297;BME280;40758;54.038;11.684;2022-12-18T09:23:24;102888.28;;;-7.20;100.00
7297;BME280;40758;54.038;11.684;2022-12-18T09:25:59;102888.44;;;-7.14;100.00
7297;BME280;40758;54.038;11.684;2022-12-18T09:28:28;102895.34;;;-7.16;100.00
7297;BME280;40758;54.038;11.684;2022-12-18T09:31:04;102887.41;;;-7.20;100.00
7297;BME280;40758;54.038;11.684;2022-12-18T09:33:36;102887.97;;;-6.98;100.00
7297;BME280;40758;54.038;11.684;2022-12-18T09:36:18;102890.84;;;-6.85;100.00
7297;BME280;40758;54.038;11.684;2022-12-18T09:38:48;102891.13;;;-6.73;100.00
7297;BME280;40758;54.038;11.684;2022-12-18T09:41:41;102883.53;;;-6.61;100.00
7297;BME280;40758;54.038;11.684;2022-12-18T09:44:30;102886.41;;;-6.49;100.00
7297;BME280;40758;54.038;11.684;2022-12-18T09:47:20;102887.97;;;-6.57;100.00
7297;BME280;40758;54.038;11.684;2022-12-18T09:49:58;102895.97;;;-6.49;100.00
7297;BME280;40758;54.038;11.684;2022-12-18T09:52:35;102891.81;;;-6.40;100.00
7297;BME280;40758;54.038;11.684;2022-12-18T09:55:20;102902.28;;;-6.40;100.00
7297;BME280;40758;54.038;11.684;2022-12-18T09:57:56;102893.78;;;-6.28;100.00
7297;BME280;40758;54.038;11.684;2022-12-18T10:00:26;102897.63;;;-6.13;100.00
7297;BME280;40758;54.038;11.684;2022-12-18T10:03:03;102894.69;;;-6.28;100.00
7297;BME280;40758;54.038;11.684;2022-12-18T10:05:54;102888.59;;;-6.27;100.00
7297;BME280;40758;54.038;11.684;2022-12-18T10:08:40;102881.97;;;-6.09;100.00
7297;BME280;40758;54.038;11.684;2022-12-18T10:11:32;102886.41;;;-6.04;100.00
7297;BME280;40758;54.038;11.684;2022-12-18T10:14:23;102877.69;;;-6.04;100.00
7297;BME280;40758;54.038;11.684;2022-12-18T10:17:07;102885.19;;;-6.23;100.00
7297;BME280;40758;54.038;11.684;2022-12-18T10:19:55;102886.94;;;-6.22;100.00
7297;BME280;40758;54.038;11.684;2022-12-18T10:22:46;102882.72;;;-6.15;100.00
7297;BME280;40758;54.038;11.684;2022-12-18T10:25:24;102887.72;;;-5.79;100.00
7297;BME280;40758;54.038;11.684;2022-12-18T10:27:59;102880.69;;;-5.32;100.00
7297;BME280;40758;54.038;11.684;2022-12-18T10:30:29;102887.69;;;-4.74;100.00
7297;BME280;40758;54.038;11.684;2022-12-18T10:33:01;102890.75;;;-4.40;100.00
7297;BME280;40758;54.038;11.684;2022-12-18T10:35:32;102882.41;;;-4.07;100.00
7297;BME280;40758;54.038;11.684;2022-12-18T10:38:30;102888.94;;;-3.71;100.00
7297;BME280;40758;54.038;11.684;2022-12-18T10:41:06;102884.84;;;-3.37;100.00
7297;BME280;40758;54.038;11.684;2022-12-18T10:43:40;102888.31;;;-3.39;100.00
7297;BME280;40758;54.038;11.684;2022-12-18T10:46:15;102881.91;;;-3.69;100.00
7297;BME280;40758;54.038;11.684;2022-12-18T10:48:54;102876.56;;;-3.81;100.00
7297;BME280;40758;54.038;11.684;2022-12-18T10:51:29;102880.56;;;-3.24;100.00
7297;BME280;40758;54.038;11.684;2022-12-18T10:54:12;102883.81;;;-3.55;100.00
7297;BME280;40758;54.038;11.684;2022-12-18T10:56:46;102879.16;;;-2.70;100.00
7297;BME280;40758;54.038;11.684;2022-12-18T10:59:17;102878.28;;;-2.74;100.00
7297;BME280;40758;54.038;11.684;2022-12-18T11:01:52;102877.09;;;-3.20;100.00
7297;BME280;40758;54.038;11.684;2022-12-18T11:04:30;102873.25;;;-4.41;100.00
7297;BME280;40758;54.038;11.684;2022-12-18T11:07:06;102869.78;;;-4.37;100.00
7297;BME280;40758;54.038;11.684;2022-12-18T11:09:42;102867.41;;;-4.18;100.00
7297;BME280;40758;54.038;11.684;2022-12-18T11:12:18;102867.38;;;-4.19;100.00
7297;BME280;40758;54.038;11.684;2022-12-18T11:14:50;102864.94;;;-4.01;100.00
7297;BME280;40758;54.038;11.684;2022-12-18T11:17:27;102871.31;;;-3.81;100.00
7297;BME280;40758;54.038;11.684;2022-12-18T11:20:18;102874.50;;;-4.09;100.00
7297;BME280;40758;54.038;11.684;2022-12-18T11:22:59;102887.22;;;-4.42;100.00
7297;BME280;40758;54.038;11.684;2022-12-18T11:25:31;102879.00;;;-4.70;100.00
7297;BME280;40758;54.038;11.684;2022-12-18T11:28:05;102878.34;;;-4.54;100.00
7297;BME280;40758;54.038;11.684;2022-12-18T11:30:43;102865.59;;;-4.23;100.00
7297;BME280;40758;54.038;11.684;2022-12-18T11:33:19;102876.22;;;-4.11;100.00
7297;BME280;40758;54.038;11.684;2022-12-18T11:36:00;102872.50;;;-3.44;100.00
7297;BME280;40758;54.038;11.684;2022-12-18T11:38:36;102865.50;;;-3.45;100.00
7297;BME280;40758;54.038;11.684;2022-12-18T11:41:19;102866.38;;;-3.47;100.00
7297;BME280;40758;54.038;11.684;2022-12-18T11:43:56;102866.53;;;-3.24;100.00
7297;BME280;40758;54.038;11.684;2022-12-18T11:46:36;102865.41;;;-3.55;100.00
7297;BME280;40758;54.038;11.684;2022-12-18T11:49:17;102853.41;;;-4.18;100.00
7297;BME280;40758;54.038;11.684;2022-12-18T11:51:55;102858.94;;;-4.66;100.00
7297;BME280;40758;54.038;11.684;2022-12-18T11:54:30;102864.25;;;-4.60;100.00
7297;BME280;40758;54.038;11.684;2022-12-18T11:57:09;102865.22;;;-4.54;100.00
7297;BME280;40758;54.038;11.684;2022-12-18T11:59:58;102858.13;;;-4.61;100.00
7297;BME280;40758;54.038;11.684;2022-12-18T12:03:12;102861.53;;;-3.95;100.00
7297;BME280;40758;54.038;11.684;2022-12-18T12:06:01;102869.00;;;-3.44;100.00
7297;BME280;40758;54.038;11.684;2022-12-18T12:08:47;102861.25;;;-3.26;100.00
7297;BME280;40758;54.038;11.684;2022-12-18T12:11:31;102852.63;;;-3.07;100.00
7297;BME280;40758;54.038;11.684;2022-12-18T12:14:32;102852.56;;;-3.19;100.00
7297;BME280;40758;54.038;11.684;2022-12-18T12:17:22;102843.59;;;-3.45;100.00
7297;BME280;40758;54.038;11.684;2022-12-18T12:20:04;102841.81;;;-3.52;100.00
7297;BME280;40758;54.038;11.684;2022-12-18T12:22:51;102832.00;;;-3.70;100.00
7297;BME280;40758;54.038;11.684;2022-12-18T12:25:37;102834.38;;;-3.94;100.00
7297;BME280;40758;54.038;11.684;2022-12-18T12:28:31;102840.53;;;-3.95;100.00
7297;BME280;40758;54.038;11.684;2022-12-18T12:31:20;102843.75;;;-4.22;100.00
7297;BME280;40758;54.038;11.684;2022-12-18T12:34:06;102851.41;;;-4.40;100.00
7297;BME280;40758;54.038;11.684;2022-12-18T12:36:59;102851.19;;;-4.59;100.00
7297;BME280;40758;54.038;11.684;2022-12-18T12:39:44;102848.41;;;-4.71;100.00
7297;BME280;40758;54.038;11.684;2022-12-18T12:42:24;102849.09;;;-4.84;100.00
7297;BME280;40758;54.038;11.684;2022-12-18T12:45:22;102844.69;;;-4.85;100.00
7297;BME280;40758;54.038;11.684;2022-12-18T12:48:16;102846.41;;;-4.87;100.00
7297;BME280;40758;54.038;11.684;2022-12-18T12:50:50;102850.97;;;-4.74;100.00
7297;BME280;40758;54.038;11.684;2022-12-18T12:53:36;102850.94;;;-4.77;100.00
7297;BME280;40758;54.038;11.684;2022-12-18T12:56:21;102851.03;;;-4.71;100.00
7297;BME280;40758;54.038;11.684;2022-12-18T12:59:31;102846.81;;;-4.58;100.00
7297;BME280;40758;54.038;11.684;2022-12-18T13:02:42;102835.44;;;-4.59;100.00
7297;BME280;40758;54.038;11.684;2022-12-18T13:05:34;102831.81;;;-4.70;100.00
7297;BME280;40758;54.038;11.684;2022-12-18T13:08:25;102838.03;;;-4.60;100.00
7297;BME280;40758;54.038;11.684;2022-12-18T13:11:03;102833.66;;;-4.60;100.00
7297;BME280;40758;54.038;11.684;2022-12-18T13:13:57;102832.59;;;-4.77;100.00
7297;BME280;40758;54.038;11.684;2022-12-18T13:16:29;102832.44;;;-4.86;100.00
7297;BME280;40758;54.038;11.684;2022-12-18T13:19:29;102817.38;;;-5.02;100.00
7297;BME280;40758;54.038;11.684;2022-12-18T13:22:33;102824.16;;;-5.16;100.00